createdAt,value
2022-12-12T00:01:33.005Z,5.22
2022-12-12T00:04:01.434Z,5.08
2022-12-12T00:06:30.223Z,5.00
2022-12-12T00:08:58.112Z,4.82
2022-12-12T00:11:27.572Z,4.90
2022-12-12T00:13:56.588Z,4.71
2022-12-12T00:16:26.704Z,4.85
2022-12-12T00:18:55.197Z,4.73
2022-12-12T00:21:26.852Z,4.73
2022-12-12T00:23:56.153Z,4.59
2022-12-12T00:26:28.382Z,4.64
2022-12-12T00:28:58.090Z,4.94
2022-12-12T00:31:27.604Z,5.07
2022-12-12T00:33:55.986Z,5.13
2022-12-12T00:36:27.002Z,4.88
2022-12-12T00:38:55.832Z,4.77
2022-12-12T00:41:24.949Z,4.60
2022-12-12T00:43:52.907Z,4.45
2022-12-12T00:46:24.419Z,4.09
2022-12-12T00:48:58.134Z,4.10
2022-12-12T00:51:28.096Z,4.22
2022-12-12T00:53:58.408Z,4.23
2022-12-12T00:56:29.095Z,4.15
2022-12-12T00:58:56.951Z,4.11
2022-12-12T01:01:29.995Z,3.89
2022-12-12T01:03:59.286Z,4.10
2022-12-12T01:06:28.497Z,3.95
2022-12-12T01:08:56.584Z,4.01
2022-12-12T01:11:24.942Z,4.30
2022-12-12T01:13:54.345Z,4.03
2022-12-12T01:16:23.608Z,4.06
2022-12-12T01:18:51.766Z,3.98
2022-12-12T01:21:21.372Z,3.69
2022-12-12T01:23:49.981Z,3.80
2022-12-12T01:26:21.652Z,3.93
2022-12-12T01:28:49.637Z,3.81
2022-12-12T01:31:20.237Z,3.52
2022-12-12T01:33:48.272Z,3.47
2022-12-12T01:36:19.322Z,3.24
2022-12-12T01:38:48.776Z,3.05
2022-12-12T01:41:19.217Z,2.99
2022-12-12T01:43:47.591Z,3.49
2022-12-12T01:46:37.785Z,3.21
2022-12-12T01:49:09.546Z,3.10
2022-12-12T01:51:40.363Z,2.81
2022-12-12T01:54:12.023Z,2.71
2022-12-12T01:56:42.803Z,2.86
2022-12-12T01:59:14.455Z,2.91
2022-12-12T02:01:43.275Z,2.47
2022-12-12T02:04:13.132Z,2.33
2022-12-12T02:06:43.572Z,2.47
2022-12-12T02:09:14.281Z,2.69
2022-12-12T02:11:46.571Z,2.74
2022-12-12T02:14:19.020Z,2.97
2022-12-12T02:17:05.210Z,3.17
2022-12-12T02:19:38.874Z,3.29
2022-12-12T02:22:26.020Z,3.41
2022-12-12T02:25:29.273Z,3.43
2022-12-12T02:28:03.414Z,3.47
2022-12-12T02:30:49.895Z,3.49
2022-12-12T02:33:48.856Z,3.84
2022-12-12T02:36:40.702Z,3.79
2022-12-12T02:39:14.793Z,3.91
2022-12-12T02:41:55.561Z,3.58
2022-12-12T02:44:34.251Z,3.70
2022-12-12T02:47:21.619Z,3.74
2022-12-12T02:49:57.852Z,3.79
2022-12-12T02:52:26.249Z,3.73
2022-12-12T02:54:54.492Z,3.80
2022-12-12T02:57:25.372Z,3.92
2022-12-12T02:59:58.513Z,3.80
2022-12-12T03:02:50.261Z,3.77
2022-12-12T03:05:48.165Z,3.89
2022-12-12T03:08:34.223Z,3.76
2022-12-12T03:11:17.453Z,3.49
2022-12-12T03:13:48.257Z,3.56
2022-12-12T03:16:32.942Z,3.53
2022-12-12T03:19:17.666Z,3.18
2022-12-12T03:22:24.833Z,2.65
2022-12-12T03:25:03.724Z,2.30
2022-12-12T03:27:43.473Z,2.38
2022-12-12T03:30:18.083Z,2.61
2022-12-12T03:33:17.052Z,2.57
2022-12-12T03:35:50.503Z,2.62
2022-12-12T03:38:27.103Z,2.76
2022-12-12T03:41:02.103Z,2.49
2022-12-12T03:43:35.813Z,2.39
2022-12-12T03:46:22.503Z,2.33
2022-12-12T03:49:07.924Z,2.45
2022-12-12T03:51:48.506Z,1.74
2022-12-12T03:55:15.850Z,1.37
2022-12-12T03:58:00.303Z,1.19
2022-12-12T04:00:32.692Z,1.50
2022-12-12T04:03:11.107Z,1.89
2022-12-12T04:06:25.982Z,1.71
2022-12-12T04:09:22.036Z,1.94
2022-12-12T04:12:38.605Z,1.54
2022-12-12T04:15:44.605Z,1.89
2022-12-12T04:18:36.542Z,2.20
2022-12-12T04:21:57.804Z,2.21
2022-12-12T04:24:39.311Z,2.38
2022-12-12T04:27:29.281Z,2.07
2022-12-12T04:30:09.793Z,1.95
2022-12-12T04:32:53.212Z,2.09
2022-12-12T04:35:28.634Z,1.91
2022-12-12T04:38:03.882Z,2.15
2022-12-12T04:40:39.471Z,2.16
2022-12-12T04:43:12.644Z,2.13
2022-12-12T04:45:48.612Z,2.23
2022-12-12T04:48:21.413Z,2.27
2022-12-12T04:50:53.716Z,2.20
2022-12-12T04:53:30.273Z,2.25
2022-12-12T04:56:05.824Z,2.43
2022-12-12T04:58:33.635Z,2.27
2022-12-12T05:01:09.324Z,2.42
2022-12-12T05:03:59.381Z,2.51
2022-12-12T05:06:38.053Z,2.57
2022-12-12T05:09:07.994Z,2.39
2022-12-12T05:11:38.943Z,2.33
2022-12-12T05:14:09.853Z,1.14
2022-12-12T05:16:53.220Z,0.99
2022-12-12T05:19:21.282Z,0.79
2022-12-12T05:21:50.743Z,1.22
2022-12-12T05:24:18.726Z,1.18
2022-12-12T05:26:47.243Z,1.43
2022-12-12T05:29:15.203Z,1.20
2022-12-12T05:31:44.532Z,1.04
2022-12-12T05:34:13.192Z,1.43
2022-12-12T05:36:41.737Z,1.08
2022-12-12T05:39:09.721Z,0.72
2022-12-12T05:41:38.152Z,0.71
2022-12-12T05:44:06.202Z,0.54
2022-12-12T05:46:34.496Z,0.62
2022-12-12T05:49:02.451Z,0.54
2022-12-12T05:51:31.922Z,0.79
2022-12-12T05:54:01.733Z,0.76
2022-12-12T05:56:30.100Z,0.63
2022-12-12T05:58:58.202Z,0.78
2022-12-12T06:01:26.593Z,1.15
2022-12-12T06:03:54.643Z,1.14
2022-12-12T06:06:24.364Z,0.92
2022-12-12T06:08:52.402Z,1.15
2022-12-12T06:11:20.702Z,1.08
2022-12-12T06:13:48.771Z,1.03
2022-12-12T06:16:19.429Z,1.14
2022-12-12T06:18:52.572Z,1.16
2022-12-12T06:21:22.180Z,1.31
2022-12-12T06:23:50.421Z,1.19
2022-12-12T06:26:20.131Z,1.05
2022-12-12T06:28:48.166Z,1.14
2022-12-12T06:31:17.239Z,1.14
2022-12-12T06:33:45.368Z,1.46
2022-12-12T06:36:26.563Z,1.51
2022-12-12T06:38:59.454Z,1.07
2022-12-12T06:41:31.312Z,1.12
2022-12-12T06:43:59.870Z,1.49
2022-12-12T06:46:30.909Z,1.02
2022-12-12T06:48:59.359Z,1.40
2022-12-12T06:51:36.539Z,1.15
2022-12-12T06:54:05.145Z,1.02
2022-12-12T06:56:33.453Z,1.02
2022-12-12T06:59:01.419Z,0.99
2022-12-12T07:01:30.998Z,1.05
2022-12-12T07:03:59.963Z,0.99
2022-12-12T07:06:28.957Z,0.89
2022-12-12T07:08:59.221Z,0.81
2022-12-12T07:11:28.579Z,0.80
2022-12-12T07:13:58.155Z,1.16
2022-12-12T07:16:26.599Z,1.29
2022-12-12T07:18:54.536Z,1.52
2022-12-12T07:21:22.934Z,1.29
2022-12-12T07:23:50.912Z,1.79
2022-12-12T07:26:22.833Z,1.89
2022-12-12T07:28:51.805Z,2.07
2022-12-12T07:31:40.366Z,1.89
2022-12-12T07:34:15.035Z,1.46
2022-12-12T07:36:43.601Z,1.53
2022-12-12T07:39:15.878Z,1.53
2022-12-12T07:41:47.256Z,1.64
2022-12-12T07:44:20.873Z,2.19
2022-12-12T07:46:50.314Z,2.46
2022-12-12T07:49:18.511Z,2.79
2022-12-12T07:51:49.240Z,2.66
2022-12-12T07:54:17.933Z,2.73
2022-12-12T07:56:46.406Z,3.11
2022-12-12T07:59:14.433Z,2.61
2022-12-12T08:01:43.025Z,2.51
2022-12-12T08:04:11.153Z,2.45
2022-12-12T08:06:39.574Z,2.52
2022-12-12T08:09:07.587Z,2.64
2022-12-12T08:11:40.742Z,3.09
2022-12-12T08:14:14.334Z,3.10
2022-12-12T08:16:43.804Z,2.57
2022-12-12T08:19:13.243Z,2.82
2022-12-12T08:21:43.435Z,2.48
2022-12-12T08:24:15.832Z,2.72
2022-12-12T08:26:45.483Z,2.57
2022-12-12T08:29:13.714Z,2.93
2022-12-12T08:31:45.905Z,2.67
2022-12-12T08:34:14.183Z,3.19
2022-12-12T08:36:44.344Z,3.44
2022-12-12T08:39:16.434Z,3.71
2022-12-12T08:41:49.053Z,3.09
2022-12-12T08:44:19.625Z,3.65
2022-12-12T08:46:51.556Z,3.84
2022-12-12T08:49:20.593Z,4.06
2022-12-12T08:51:51.695Z,3.74
2022-12-12T08:54:20.543Z,4.25
2022-12-12T08:56:48.831Z,4.74
2022-12-12T08:59:16.931Z,4.81
2022-12-12T09:01:45.425Z,4.31
2022-12-12T09:04:13.792Z,4.59
2022-12-12T09:06:45.984Z,5.43
2022-12-12T09:09:14.237Z,4.95
2022-12-12T09:11:42.586Z,4.12
2022-12-12T09:14:11.620Z,4.39
2022-12-12T09:16:40.169Z,4.40
2022-12-12T09:19:08.284Z,4.86
2022-12-12T09:21:37.903Z,4.95
2022-12-12T09:24:06.296Z,4.69
2022-12-12T09:26:34.946Z,4.80
2022-12-12T09:29:03.503Z,4.95
2022-12-12T09:31:33.066Z,5.42
2022-12-12T09:34:01.034Z,5.23
2022-12-12T09:36:29.676Z,5.33
2022-12-12T09:38:57.796Z,5.47
2022-12-12T09:41:30.851Z,5.53
2022-12-12T09:44:16.134Z,5.73
2022-12-12T09:46:56.653Z,5.66
2022-12-12T09:49:46.997Z,5.90
2022-12-12T09:52:27.721Z,5.84
2022-12-12T09:55:15.664Z,6.26
2022-12-12T09:57:54.975Z,5.55
2022-12-12T10:00:23.134Z,6.35
2022-12-12T10:03:04.070Z,6.29
2022-12-12T10:05:41.668Z,6.71
2022-12-12T10:08:46.477Z,6.69
2022-12-12T10:11:40.129Z,6.95
2022-12-12T10:14:12.275Z,6.93
2022-12-12T10:16:41.554Z,6.49
2022-12-12T10:19:29.889Z,6.56
2022-12-12T10:22:06.451Z,7.18
2022-12-12T10:24:52.915Z,8.07
2022-12-12T10:27:25.053Z,8.74
2022-12-12T10:29:54.549Z,9.21
2022-12-12T10:32:45.244Z,9.04
2022-12-12T10:35:26.398Z,8.48
2022-12-12T10:38:15.056Z,8.39
2022-12-12T10:41:05.687Z,8.17
2022-12-12T10:44:00.815Z,8.03
2022-12-12T10:46:39.602Z,8.06
2022-12-12T10:49:25.598Z,7.94
2022-12-12T10:51:57.970Z,7.23
2022-12-12T10:54:28.653Z,7.90
2022-12-12T10:57:06.105Z,8.09
2022-12-12T10:59:45.595Z,8.64
2022-12-12T11:02:28.780Z,8.42
2022-12-12T11:05:06.548Z,8.40
2022-12-12T11:07:47.772Z,8.74
2022-12-12T11:10:23.382Z,8.07
2022-12-12T11:13:16.644Z,8.53
2022-12-12T11:15:56.927Z,8.95
2022-12-12T11:18:26.214Z,8.86
2022-12-12T11:21:13.723Z,8.60
2022-12-12T11:23:50.814Z,9.60
2022-12-12T11:26:21.126Z,10.04
2022-12-12T11:28:59.972Z,9.33
2022-12-12T11:31:32.933Z,8.39
2022-12-12T11:34:07.762Z,9.14
2022-12-12T11:36:42.034Z,10.24
2022-12-12T11:39:25.176Z,11.32
2022-12-12T11:42:19.697Z,10.93
2022-12-12T11:45:17.774Z,10.45
2022-12-12T11:47:47.645Z,10.19
2022-12-12T11:50:26.095Z,11.37
2022-12-12T11:52:56.783Z,11.64
2022-12-12T11:55:39.946Z,10.52
2022-12-12T11:58:22.916Z,10.57
2022-12-12T12:01:03.479Z,11.09
2022-12-12T12:03:49.478Z,11.50
2022-12-12T12:06:56.704Z,11.08
2022-12-12T12:09:48.852Z,10.84
2022-12-12T12:12:35.609Z,10.61
2022-12-12T12:15:22.621Z,12.10
2022-12-12T12:18:28.440Z,12.03
2022-12-12T12:21:22.616Z,12.03
2022-12-12T12:24:06.345Z,10.89
2022-12-12T12:26:47.852Z,12.03
2022-12-12T12:29:39.322Z,13.31
2022-12-12T12:32:26.152Z,12.76
2022-12-12T12:35:19.984Z,11.81
2022-12-12T12:37:54.964Z,12.59
2022-12-12T12:40:56.383Z,10.32
2022-12-12T12:44:18.878Z,12.72
2022-12-12T12:47:04.955Z,11.13
2022-12-12T12:49:55.944Z,10.94
2022-12-12T12:52:55.039Z,10.35
2022-12-12T12:55:51.765Z,9.81
2022-12-12T12:58:28.554Z,9.32
2022-12-12T13:01:15.006Z,9.80
2022-12-12T13:03:55.325Z,9.69
2022-12-12T13:06:43.654Z,8.70
2022-12-12T13:09:39.114Z,9.00
2022-12-12T13:12:25.953Z,8.86
2022-12-12T13:15:01.788Z,8.30
2022-12-12T13:17:52.115Z,7.23
2022-12-12T13:20:25.504Z,6.93
2022-12-12T13:23:20.764Z,7.12
2022-12-12T13:26:12.326Z,6.57
2022-12-12T13:28:54.384Z,6.85
2022-12-12T13:31:47.747Z,6.52
2022-12-12T13:34:19.725Z,6.31
2022-12-12T13:36:51.544Z,6.01
2022-12-12T13:39:39.034Z,6.18
2022-12-12T13:42:10.594Z,6.73
2022-12-12T13:44:48.488Z,6.66
2022-12-12T13:47:18.046Z,6.73
2022-12-12T13:49:48.420Z,5.89
2022-12-12T13:52:43.793Z,5.75
2022-12-12T13:55:11.665Z,5.96
2022-12-12T13:58:03.026Z,5.51
2022-12-12T14:00:33.344Z,5.58
2022-12-12T14:03:08.067Z,5.91
2022-12-12T14:05:46.676Z,6.63
2022-12-12T14:08:14.948Z,6.48
2022-12-12T14:10:56.276Z,6.67
2022-12-12T14:13:24.624Z,6.62
2022-12-12T14:15:58.555Z,5.89
2022-12-12T14:18:31.628Z,5.47
2022-12-12T14:21:04.759Z,5.60
2022-12-12T14:23:36.424Z,5.78
2022-12-12T14:26:27.509Z,6.28
2022-12-12T14:29:17.345Z,5.61
2022-12-12T14:32:06.585Z,5.77
2022-12-12T14:34:35.454Z,6.01
2022-12-12T14:37:12.494Z,6.43
2022-12-12T14:39:50.515Z,6.60
2022-12-12T14:43:16.406Z,5.85
2022-12-12T14:45:49.723Z,5.67
2022-12-12T14:48:36.642Z,5.72
2022-12-12T14:51:16.602Z,5.85
2022-12-12T14:53:50.889Z,6.31
2022-12-12T14:56:21.064Z,6.29
2022-12-12T14:58:59.778Z,5.99
2022-12-12T15:01:42.796Z,5.61
2022-12-12T15:04:20.100Z,5.36
2022-12-12T15:06:56.243Z,5.33
2022-12-12T15:09:35.976Z,4.98
2022-12-12T15:12:10.455Z,4.56
2022-12-12T15:14:41.943Z,4.84
2022-12-12T15:17:19.896Z,5.37
2022-12-12T15:19:59.364Z,5.58
2022-12-12T15:22:37.497Z,5.64
2022-12-12T15:25:33.437Z,5.41
2022-12-12T15:28:03.465Z,5.82
2022-12-12T15:30:42.397Z,6.04
2022-12-12T15:33:18.042Z,5.89
2022-12-12T15:36:05.505Z,5.95
2022-12-12T15:38:34.846Z,5.87
2022-12-12T15:41:12.795Z,5.82
2022-12-12T15:43:43.412Z,5.70
2022-12-12T15:46:15.971Z,5.52
2022-12-12T15:48:49.955Z,5.30
2022-12-12T15:51:24.645Z,5.59
2022-12-12T15:53:55.848Z,5.37
2022-12-12T15:56:29.699Z,5.16
2022-12-12T15:59:15.522Z,5.49
2022-12-12T16:01:43.975Z,5.84
2022-12-12T16:04:12.258Z,5.91
2022-12-12T16:06:45.742Z,6.05
2022-12-12T16:09:18.922Z,5.94
2022-12-12T16:11:54.119Z,5.97
2022-12-12T16:14:43.279Z,5.53
2022-12-12T16:17:18.112Z,5.31
2022-12-12T16:20:03.418Z,5.68
2022-12-12T16:22:34.058Z,5.82
2022-12-12T16:25:24.722Z,6.00
2022-12-12T16:28:13.371Z,6.23
2022-12-12T16:30:43.806Z,6.06
2022-12-12T16:33:30.561Z,6.11
2022-12-12T16:36:01.318Z,6.28
2022-12-12T16:38:31.565Z,5.99
2022-12-12T16:41:05.779Z,6.11
2022-12-12T16:43:33.696Z,6.15
2022-12-12T16:46:01.912Z,6.08
2022-12-12T16:48:36.412Z,6.23
2022-12-12T16:51:07.425Z,6.27
2022-12-12T16:53:38.271Z,6.15
2022-12-12T16:56:06.995Z,6.31
2022-12-12T16:58:35.085Z,6.39
2022-12-12T17:01:05.033Z,6.18
2022-12-12T17:03:33.159Z,6.00
2022-12-12T17:06:02.762Z,6.37
2022-12-12T17:08:30.775Z,6.06
2022-12-12T17:11:09.885Z,6.07
2022-12-12T17:13:48.504Z,6.33
2022-12-12T17:16:19.322Z,6.13
2022-12-12T17:18:49.589Z,5.98
2022-12-12T17:21:18.967Z,6.03
2022-12-12T17:23:47.057Z,5.80
2022-12-12T17:26:15.566Z,6.12
2022-12-12T17:28:43.546Z,6.47
2022-12-12T17:31:13.156Z,6.19
2022-12-12T17:33:49.909Z,6.20
2022-12-12T17:36:20.015Z,6.09
2022-12-12T17:38:48.993Z,6.13
2022-12-12T17:41:17.663Z,6.08
2022-12-12T17:43:49.327Z,6.00
2022-12-12T17:46:20.674Z,5.89
2022-12-12T17:48:48.931Z,5.71
2022-12-12T17:51:21.378Z,6.09
2022-12-12T17:53:51.598Z,6.30
2022-12-12T17:56:23.580Z,5.94
2022-12-12T17:58:51.879Z,5.98
2022-12-12T18:01:29.360Z,5.89
2022-12-12T18:03:59.155Z,6.02
2022-12-12T18:06:31.799Z,5.80
2022-12-12T18:09:01.055Z,5.81
2022-12-12T18:11:33.317Z,5.74
2022-12-12T18:14:04.276Z,5.82
2022-12-12T18:16:34.384Z,5.74
2022-12-12T18:19:03.285Z,5.78
2022-12-12T18:24:24.833Z,6.09
2022-12-12T18:26:55.604Z,5.83
2022-12-12T18:29:25.074Z,6.02
2022-12-12T18:31:54.091Z,5.74
2022-12-12T18:34:23.493Z,5.65
2022-12-12T18:36:54.085Z,5.48
2022-12-12T18:39:22.258Z,5.38
2022-12-12T18:41:52.306Z,5.38
2022-12-12T18:44:20.473Z,5.41
2022-12-12T18:46:51.110Z,5.38
2022-12-12T18:49:19.423Z,5.48
2022-12-12T18:51:47.930Z,5.45
2022-12-12T18:54:16.783Z,5.59
2022-12-12T18:56:47.166Z,5.51
2022-12-12T18:59:16.036Z,5.38
2022-12-12T19:01:45.287Z,5.56
2022-12-12T19:04:17.730Z,5.54
2022-12-12T19:06:53.313Z,5.75
2022-12-12T19:09:21.952Z,5.56
2022-12-12T19:11:54.289Z,5.36
2022-12-12T19:14:35.709Z,5.56
2022-12-12T19:17:09.367Z,5.64
2022-12-12T19:19:37.611Z,5.78
2022-12-12T19:22:24.813Z,5.49
2022-12-12T19:25:03.698Z,5.56
2022-12-12T19:27:32.178Z,5.36
2022-12-12T19:30:00.155Z,5.34
2022-12-12T19:32:29.027Z,5.55
2022-12-12T19:34:57.192Z,5.32
2022-12-12T19:37:26.440Z,5.23
2022-12-12T19:39:54.745Z,5.24
2022-12-12T19:42:23.573Z,5.23
2022-12-12T19:44:51.654Z,5.21
2022-12-12T19:47:20.131Z,5.15
2022-12-12T19:49:49.891Z,5.06
2022-12-12T19:52:20.137Z,5.15
2022-12-12T19:54:48.088Z,5.32
2022-12-12T19:57:16.452Z,5.20
2022-12-12T19:59:44.573Z,5.18
2022-12-12T20:02:13.485Z,5.14
2022-12-12T20:04:41.877Z,5.08
2022-12-12T20:07:10.322Z,5.22
2022-12-12T20:09:38.457Z,5.01
2022-12-12T20:12:06.862Z,4.80
2022-12-12T20:14:37.195Z,5.12
2022-12-12T20:17:05.578Z,4.95
2022-12-12T20:19:33.443Z,5.07
2022-12-12T20:22:03.015Z,4.91
2022-12-12T20:24:34.090Z,4.79
2022-12-12T20:27:04.007Z,4.84
2022-12-12T20:29:32.844Z,4.85
2022-12-12T20:32:01.893Z,4.66
2022-12-12T20:34:30.483Z,4.42
2022-12-12T20:36:58.995Z,4.56
2022-12-12T20:39:27.054Z,4.67
2022-12-12T20:41:57.337Z,4.47
2022-12-12T20:44:26.021Z,4.26
2022-12-12T20:46:56.133Z,4.07
2022-12-12T20:49:25.021Z,4.16
2022-12-12T20:51:55.919Z,4.30
2022-12-12T20:54:27.824Z,4.20
2022-12-12T20:56:58.567Z,4.11
2022-12-12T20:59:27.217Z,3.83
2022-12-12T21:01:55.675Z,3.00
2022-12-12T21:04:24.593Z,2.61
2022-12-12T21:06:54.485Z,3.15
2022-12-12T21:09:26.446Z,2.86
2022-12-12T21:11:58.641Z,2.52
2022-12-12T21:14:28.339Z,2.58
2022-12-12T21:16:57.244Z,2.95
2022-12-12T21:19:25.326Z,3.36
2022-12-12T21:21:54.905Z,3.17
2022-12-12T21:24:23.042Z,3.07
2022-12-12T21:26:51.474Z,3.40
2022-12-12T21:29:20.063Z,3.13
2022-12-12T21:31:52.026Z,3.31
2022-12-12T21:34:23.131Z,3.09
2022-12-12T21:36:55.908Z,2.79
2022-12-12T21:39:27.217Z,3.06
2022-12-12T21:41:56.355Z,3.26
2022-12-12T21:44:25.256Z,3.21
2022-12-12T21:46:53.819Z,3.42
2022-12-12T21:49:28.388Z,3.30
2022-12-12T21:52:10.178Z,3.27
2022-12-12T21:54:38.449Z,3.48
2022-12-12T21:57:09.645Z,3.88
2022-12-12T21:59:39.068Z,3.89
2022-12-12T22:02:07.953Z,3.80
2022-12-12T22:04:36.094Z,3.78
2022-12-12T22:07:04.681Z,3.73
2022-12-12T22:09:32.642Z,3.83
2022-12-12T22:12:03.517Z,3.62
2022-12-12T22:14:34.403Z,3.64
2022-12-12T22:17:04.652Z,3.82
2022-12-12T22:19:32.987Z,3.78
2022-12-12T22:22:01.393Z,3.53
2022-12-12T22:24:29.699Z,3.62
2022-12-12T22:26:59.677Z,3.49
2022-12-12T22:29:27.738Z,3.62
2022-12-12T22:31:57.122Z,3.43
2022-12-12T22:34:25.696Z,3.55
2022-12-12T22:36:54.318Z,3.50
2022-12-12T22:39:25.423Z,3.57
2022-12-12T22:41:57.182Z,3.42
2022-12-12T22:44:26.426Z,3.53
2022-12-12T22:46:56.570Z,3.16
2022-12-12T22:49:26.541Z,3.17
2022-12-12T22:51:57.315Z,3.29
2022-12-12T22:54:26.102Z,3.00
2022-12-12T22:56:55.303Z,2.82
2022-12-12T22:59:25.501Z,2.80
2022-12-12T23:01:53.758Z,2.25
2022-12-12T23:04:21.969Z,1.92
2022-12-12T23:06:50.521Z,1.99
2022-12-12T23:09:22.079Z,2.37
2022-12-12T23:11:50.690Z,2.48
2022-12-12T23:14:21.966Z,2.29
2022-12-12T23:16:52.029Z,2.23
2022-12-12T23:19:25.937Z,2.06
2022-12-12T23:21:54.420Z,2.57
2022-12-12T23:24:23.092Z,2.38
2022-12-12T23:26:54.971Z,2.18
2022-12-12T23:29:23.524Z,2.66
2022-12-12T23:31:53.475Z,3.07
2022-12-12T23:34:25.383Z,3.11
2022-12-12T23:36:56.897Z,3.43
2022-12-12T23:39:27.681Z,3.45
2022-12-12T23:41:56.091Z,3.72
2022-12-12T23:44:24.939Z,3.74
2022-12-12T23:46:54.407Z,3.63
2022-12-12T23:49:26.645Z,3.65
2022-12-12T23:52:00.232Z,3.57
2022-12-12T23:54:35.203Z,3.84
2022-12-12T23:57:03.560Z,4.01
2022-12-12T23:59:31.674Z,3.89
